createdAt,value
2023-01-10T00:03:40.532Z,99.8
2023-01-10T00:09:35.821Z,99.3
2023-01-10T00:15:30.929Z,100
2023-01-10T00:27:52.495Z,98.5
2023-01-10T00:33:46.331Z,98.2
2023-01-10T00:39:40.524Z,97.6
2023-01-10T00:46:00.942Z,99
2023-01-10T00:52:05.858Z,99.4
2023-01-10T00:58:25.047Z,100
2023-01-10T01:04:34.568Z,100
2023-01-10T01:10:31.109Z,100
2023-01-10T01:16:31.583Z,100
2023-01-10T01:22:24.435Z,100
2023-01-10T01:28:45.630Z,98.7
2023-01-10T01:35:18.394Z,98
2023-01-10T01:41:47.380Z,97
2023-01-10T01:54:25.398Z,97.7
2023-01-10T02:06:53.880Z,95.3
2023-01-10T02:13:01.270Z,95.9
2023-01-10T02:19:04.164Z,94.5
2023-01-10T02:25:18.050Z,95.5
2023-01-10T02:38:03.370Z,95.7
2023-01-10T02:44:23.048Z,94.4
2023-01-10T02:50:31.929Z,93.2
2023-01-10T02:56:38.040Z,93.4
2023-01-10T03:02:42.768Z,93.8
2023-01-10T03:08:39.785Z,93.2
2023-01-10T03:14:33.950Z,93.8
2023-01-10T03:20:26.404Z,93.7
2023-01-10T03:32:52.067Z,93.3
2023-01-10T03:39:04.944Z,93.5
2023-01-10T03:45:11.858Z,92.3
2023-01-10T03:51:15.566Z,91.4
2023-01-10T03:57:40.295Z,91
2023-01-10T04:03:48.045Z,91.8
2023-01-10T04:09:42.924Z,93.1
2023-01-10T04:15:53.940Z,92.5
2023-01-10T04:21:50.973Z,93.9
2023-01-10T04:27:49.595Z,93.1
2023-01-10T04:33:46.220Z,93
2023-01-10T04:39:53.794Z,92.6
2023-01-10T04:46:05.129Z,91.8
2023-01-10T04:52:09.248Z,92.3
2023-01-10T04:58:10.868Z,92.2
2023-01-10T05:04:05.136Z,92.9
2023-01-10T05:10:03.347Z,92.9
2023-01-10T05:15:52.105Z,91.9
2023-01-10T05:21:43.043Z,93
2023-01-10T05:27:33.877Z,94.1
2023-01-10T05:33:24.767Z,93.3
2023-01-10T05:39:15.404Z,93
2023-01-10T05:45:05.943Z,92.7
2023-01-10T05:50:58.238Z,92.9
2023-01-10T05:56:48.913Z,92.7
2023-01-10T06:02:40.071Z,94.9
2023-01-10T06:10:49.461Z,93.4
2023-01-10T06:16:38.565Z,92.7
2023-01-10T06:22:29.063Z,93.4
2023-01-10T06:28:20.727Z,93.2
2023-01-10T06:34:11.737Z,93.1
2023-01-10T06:40:04.073Z,93.4
2023-01-10T06:45:54.634Z,93
2023-01-10T06:51:46.582Z,92.8
2023-01-10T06:57:37.709Z,93.4
2023-01-10T07:03:28.963Z,93.3
2023-01-10T07:09:21.517Z,93
2023-01-10T07:15:13.047Z,93.3
2023-01-10T07:21:03.827Z,94.4
2023-01-10T07:28:04.743Z,93.9
2023-01-10T07:33:55.023Z,93.9
2023-01-10T07:39:46.008Z,93.4
2023-01-10T07:45:36.358Z,94.1
2023-01-10T07:51:26.007Z,94.7
2023-01-10T07:57:16.820Z,95.6
2023-01-10T08:03:08.517Z,94.6
2023-01-10T08:09:01.011Z,95.6
2023-01-10T08:14:52.114Z,95.4
2023-01-10T08:20:43.829Z,96.4
2023-01-10T08:26:34.878Z,96
2023-01-10T08:32:27.775Z,96.8
2023-01-10T08:38:18.884Z,96.7
2023-01-10T08:44:11.060Z,96.6
2023-01-10T08:50:02.372Z,97.2
2023-01-10T08:55:55.249Z,97.5
2023-01-10T09:01:46.518Z,97.7
2023-01-10T09:07:38.046Z,98
2023-01-10T09:13:28.786Z,97.8
2023-01-10T09:19:19.151Z,98.1
2023-01-10T09:25:10.431Z,97.7
2023-01-10T09:31:02.172Z,98.2
2023-01-10T09:36:53.419Z,97.9
2023-01-10T09:42:44.087Z,99.3
2023-01-10T09:48:36.949Z,96.7
2023-01-10T09:54:27.913Z,95.3
2023-01-10T10:00:19.276Z,92.9
2023-01-10T10:06:13.977Z,91.8
2023-01-10T10:12:04.703Z,90.6
2023-01-10T10:17:56.109Z,89.8
2023-01-10T10:23:47.504Z,88.7
2023-01-10T10:29:39.821Z,87.9
2023-01-10T10:35:30.911Z,87.6
2023-01-10T10:41:22.585Z,86.9
2023-01-10T10:47:13.738Z,87
2023-01-10T10:53:06.871Z,86.7
2023-01-10T10:58:59.080Z,86
2023-01-10T11:04:49.802Z,86.7
2023-01-10T11:10:40.832Z,86.3
2023-01-10T11:16:30.159Z,84.5
2023-01-10T11:22:19.541Z,84.1
2023-01-10T11:28:12.911Z,83.5
2023-01-10T11:34:03.614Z,82.8
2023-01-10T11:39:54.442Z,82.5
2023-01-10T11:45:44.648Z,81.9
2023-01-10T11:51:35.141Z,80.6
2023-01-10T11:59:45.189Z,80.6
2023-01-10T12:05:39.704Z,80.6
2023-01-10T12:11:30.758Z,80.8
2023-01-10T12:17:22.892Z,80.1
2023-01-10T12:23:14.757Z,79.8
2023-01-10T12:29:06.906Z,79
2023-01-10T12:35:00.045Z,79.5
2023-01-10T12:40:51.665Z,78.8
2023-01-10T12:47:10.703Z,79.1
2023-01-10T12:53:01.911Z,79.8
2023-01-10T12:58:52.576Z,79.3
2023-01-10T13:04:42.225Z,79.4
2023-01-10T13:10:33.484Z,79.3
2023-01-10T13:16:24.747Z,78.4
2023-01-10T13:22:16.218Z,78.4
2023-01-10T13:28:06.227Z,78.8
2023-01-10T13:33:58.009Z,79.8
2023-01-10T13:39:52.509Z,79.2
2023-01-10T13:45:44.024Z,78.4
2023-01-10T13:51:36.990Z,77.6
2023-01-10T13:57:29.852Z,77.7
2023-01-10T14:04:27.927Z,78.7
2023-01-10T14:10:18.974Z,79.7
2023-01-10T14:16:09.764Z,80.4
2023-01-10T14:22:00.648Z,80.5
2023-01-10T14:29:05.290Z,80.6
2023-01-10T14:34:56.963Z,80.9
2023-01-10T14:40:47.942Z,81.2
2023-01-10T14:46:38.468Z,81.8
2023-01-10T14:52:28.771Z,82
2023-01-10T14:58:18.029Z,82.2
2023-01-10T15:04:08.779Z,83.5
2023-01-10T15:09:59.607Z,83.6
2023-01-10T15:15:57.732Z,84.4
2023-01-10T15:22:11.137Z,84.9
2023-01-10T15:34:22.858Z,85.7
2023-01-10T15:40:19.494Z,85.5
2023-01-10T15:46:46.557Z,86.2
2023-01-10T15:52:54.373Z,87.3
2023-01-10T15:59:24.375Z,89.3
2023-01-10T16:05:55.090Z,91.8
2023-01-10T16:12:08.308Z,94
2023-01-10T16:18:28.496Z,96
2023-01-10T16:24:49.708Z,97.5
2023-01-10T16:30:53.054Z,100
2023-01-10T16:37:25.050Z,100
2023-01-10T16:49:52.322Z,100
2023-01-10T16:55:55.700Z,100
2023-01-10T17:02:10.353Z,100
2023-01-10T17:08:11.224Z,100
2023-01-10T17:14:29.831Z,100
2023-01-10T17:20:49.700Z,100
2023-01-10T17:27:12.127Z,100
2023-01-10T17:33:34.047Z,100
2023-01-10T17:46:06.188Z,100
2023-01-10T17:52:14.267Z,100
2023-01-10T17:58:19.646Z,100
2023-01-10T18:04:22.727Z,100
2023-01-10T18:10:12.930Z,100
2023-01-10T18:16:27.058Z,100
2023-01-10T18:55:18.033Z,100
2023-01-10T19:07:58.985Z,100
2023-01-10T19:14:46.007Z,100
2023-01-10T19:27:03.362Z,100
2023-01-10T19:33:24.564Z,100
2023-01-10T19:58:31.368Z,100
2023-01-10T20:10:46.346Z,100
2023-01-10T20:30:22.951Z,100
2023-01-10T20:36:29.409Z,100
2023-01-10T20:42:43.821Z,100
2023-01-10T20:48:42.989Z,100
2023-01-10T21:14:01.537Z,100
2023-01-10T21:19:51.657Z,100
2023-01-10T21:25:42.911Z,100
2023-01-10T21:31:34.460Z,100
2023-01-10T21:37:27.387Z,100
2023-01-10T21:43:19.087Z,100
2023-01-10T21:49:13.595Z,100
2023-01-10T21:55:03.684Z,100
2023-01-10T22:00:53.698Z,100
2023-01-10T22:06:44.231Z,100
2023-01-10T22:12:35.046Z,100
2023-01-10T22:18:25.347Z,100
2023-01-10T22:24:14.337Z,100
2023-01-10T22:30:04.709Z,100
2023-01-10T22:35:55.362Z,100
2023-01-10T22:41:44.349Z,100
2023-01-10T22:47:34.340Z,100
2023-01-10T22:53:27.552Z,100
2023-01-10T22:59:18.187Z,100
2023-01-10T23:05:09.685Z,100
2023-01-10T23:11:00.190Z,100
2023-01-10T23:16:50.904Z,100
2023-01-10T23:22:41.264Z,100
2023-01-10T23:28:31.372Z,100
2023-01-10T23:34:21.623Z,100
2023-01-10T23:40:12.196Z,100
2023-01-10T23:46:03.227Z,100
2023-01-10T23:51:54.283Z,100
2023-01-10T23:57:45.258Z,100
